Flinterborg — PHPH — position and weather

sailwx.info

Track history (hours):
 
Tides and Currents Weather Stations Pressure Air Temp Water Temp Dewpoint Dewpoint Depression Visibility Wind Speed Wind Dir Waves Ship Positions

Flinterborg

Last reported at 2018-Oct-20 16:30 UTC. Time now 2018-Oct-20 16:46 UTC.
Position N 46°10' W 001°14'.

Length 111 m; draft 6.1 m.

Type: Ship. MMSI: 245433000.

Date/timePositionNaut miles runAvg speedWind from/ knotsBaromVisibWave heightAir tempDewpointWater temp
2018-Oct-20 16:30N 46°10' W 001°14'0 0.0
2018-Oct-20 16:03N 46°10' W 001°14'0 0.0
2018-Oct-20 16:00N 46°10' W 001°14'0 0.0
2018-Oct-20 15:30N 46°10' W 001°14'0 0.0
2018-Oct-20 15:03N 46°10' W 001°14'0 0.0
2018-Oct-20 15:00N 46°10' W 001°14'0 0.0
2018-Oct-20 14:02N 46°10' W 001°14'0 0.0
2018-Oct-20 13:29N 46°10' W 001°14'0 0.0
2018-Oct-20 13:02N 46°10' W 001°14'0 0.0
2018-Oct-20 12:59N 46°10' W 001°14'0 0.0
2018-Oct-20 12:29N 46°10' W 001°14'0 0.0
2018-Oct-20 12:01N 46°10' W 001°14'0 0.0
2018-Oct-20 11:58N 46°10' W 001°14'0 0.0
2018-Oct-20 11:28N 46°10' W 001°14'0 0.0
2018-Oct-20 11:01N 46°10' W 001°14'0 0.0
2018-Oct-20 10:58N 46°10' W 001°14'0 0.0
2018-Oct-20 10:28N 46°10' W 001°14'0 0.0
2018-Oct-20 09:58N 46°10' W 001°14'0 0.0
2018-Oct-20 09:30N 46°10' W 001°14'0 0.0
2018-Oct-20 09:03N 46°10' W 001°14'0 0.0
2018-Oct-20 09:00N 46°10' W 001°14'0 0.0
2018-Oct-20 08:30N 46°10' W 001°14'0 0.0
2018-Oct-20 08:03N 46°10' W 001°14'0 0.0
2018-Oct-20 08:00N 46°10' W 001°14'0 0.0
2018-Oct-20 07:29N 46°10' W 001°14'0 0.0
2018-Oct-20 07:02N 46°10' W 001°14'0 0.0
2018-Oct-20 06:59N 46°10' W 001°14'0 0.0
2018-Oct-20 06:29N 46°10' W 001°14'0 0.0
2018-Oct-20 06:02N 46°10' W 001°14'0 0.0
2018-Oct-20 05:59N 46°10' W 001°14'0 0.0
2018-Oct-20 05:29N 46°10' W 001°14'0 0.0
2018-Oct-20 05:01N 46°10' W 001°14'0 0.0
2018-Oct-20 04:58N 46°10' W 001°14'0 0.0
2018-Oct-20 04:28N 46°10' W 001°14'0 0.0
2018-Oct-20 04:01N 46°10' W 001°14'0 0.0
2018-Oct-20 03:58N 46°10' W 001°14'0 0.0
2018-Oct-20 03:28N 46°10' W 001°14'0 0.0
2018-Oct-20 03:01N 46°10' W 001°14'0 0.0
2018-Oct-20 02:58N 46°10' W 001°14'0 0.0
2018-Oct-20 02:30N 46°10' W 001°14'0 0.0
2018-Oct-20 02:03N 46°10' W 001°14'0 0.0
2018-Oct-20 02:00N 46°10' W 001°14'0 0.0
2018-Oct-20 01:30N 46°10' W 001°14'0 0.0
2018-Oct-20 01:03N 46°10' W 001°14'0 0.0
2018-Oct-20 01:00N 46°10' W 001°14'0 0.0
2018-Oct-20 00:29N 46°10' W 001°14'0 0.0
2018-Oct-20 00:02N 46°10' W 001°14'0 0.0
2018-Oct-19 23:59N 46°10' W 001°14'0 0.0
2018-Oct-19 23:29N 46°10' W 001°14'0 0.0
2018-Oct-19 23:02N 46°10' W 001°14'0 0.1
2018-Oct-19 22:59N 46°10' W 001°14'0 0.0
2018-Oct-19 22:26N 46°10' W 001°14'0 0.0
2018-Oct-19 22:01N 46°10' W 001°14'0 0.0
2018-Oct-19 21:58N 46°10' W 001°14'0 0.0
2018-Oct-19 21:28N 46°10' W 001°14'0 0.0
2018-Oct-19 21:03N 46°10' W 001°14'0 0.0
2018-Oct-19 21:00N 46°10' W 001°14'1 1.3
2018-Oct-19 20:30N 46°09' W 001°14'4 7.9
2018-Oct-19 20:03N 46°06' W 001°17'110.7
2018-Oct-19 20:01N 46°06' W 001°18'611.6
2018-Oct-19 19:30N 46°06' W 001°26'511.3
2018-Oct-19 19:03N 46°07' W 001°33'111.1
2018-Oct-19 19:00N 46°07' W 001°34'611.0
2018-Oct-19 18:27N 46°05' W 001°43'410.9
2018-Oct-19 18:03N 46°03' W 001°48'111.0
2018-Oct-19 18:00N 46°03' W 001°49'610.9
2018-Oct-19 17:30N 46°00' W 001°56'4810.5
2018-Oct-19 12:55N 45°40' W 002°58'510.7
2018-Oct-19 12:24N 45°37' W 003°05'  
2018-Oct-17 04:16N 39°24' W 009°50'310.1
2018-Oct-17 04:00N 39°21' W 009°50'5 9.9
2018-Oct-17 03:30N 39°16' W 009°50'410.0
2018-Oct-17 03:04N 39°12' W 009°50'0 9.9
2018-Oct-17 03:00N 39°12' W 009°50'5 9.7
2018-Oct-17 02:30N 39°07' W 009°50'4 9.8
2018-Oct-17 02:03N 39°02' W 009°50'0 9.8
2018-Oct-17 02:00N 39°02' W 009°50'5 9.7
2018-Oct-17 01:30N 38°57' W 009°50'4 9.9
2018-Oct-17 01:03N 38°52' W 009°50'010.1
2018-Oct-17 01:00N 38°52' W 009°50'510.0
2018-Oct-17 00:30N 38°47' W 009°51'4 9.7
2018-Oct-17 00:03N 38°43' W 009°50'0 9.7
2018-Oct-17 00:00N 38°42' W 009°50'5 9.9
2018-Oct-16 23:30N 38°37' W 009°49'510.0
2018-Oct-16 23:03N 38°33' W 009°48'0 9.7
2018-Oct-16 23:00N 38°32' W 009°47'510.0
2018-Oct-16 22:30N 38°27' W 009°46'510.1
2018-Oct-16 22:03N 38°23' W 009°45'010.2
2018-Oct-16 22:00N 38°23' W 009°44'510.3
2018-Oct-16 21:30N 38°18' W 009°43'510.4
2018-Oct-16 21:02N 38°13' W 009°41'010.6
2018-Oct-16 21:00N 38°13' W 009°41'510.4
2018-Oct-16 20:30N 38°08' W 009°40'510.3
2018-Oct-16 20:01N 38°03' W 009°38'010.6
2018-Oct-16 20:00N 38°02' W 009°38'610.6
2018-Oct-16 19:24N 37°56' W 009°37'410.3
2018-Oct-16 19:03N 37°53' W 009°36'010.4
2018-Oct-16 19:00N 37°52' W 009°36'610.4
2018-Oct-16 18:29N 37°47' W 009°34'410.2
2018-Oct-16 18:03N 37°43' W 009°33'110.1
2018-Oct-16 17:59N 37°42' W 009°33'510.1
2018-Oct-16 17:30N 37°37' W 009°32'9 9.8
2018-Oct-16 16:33N 37°28' W 009°29'210 8.4
2018-Oct-15 15:31N 35°59' W 005°31'0 8.5
2018-Oct-15 15:30N 35°59' W 005°31'4 8.2
2018-Oct-15 15:03N 36°00' W 005°27'1 7.3
2018-Oct-15 14:51N 36°01' W 005°25'2 6.2
2018-Oct-15 14:30N 36°03' W 005°24'1 2.0
2018-Oct-15 14:00N 36°04' W 005°24'0 0.9
2018-Oct-15 13:30N 36°04' W 005°23'0 0.2
2018-Oct-15 13:03N 36°04' W 005°23'0 1.3
2018-Oct-15 13:00N 36°04' W 005°23'0 0.8
2018-Oct-15 12:30N 36°04' W 005°23'0 0.5
2018-Oct-15 12:03N 36°04' W 005°23'0 1.2
2018-Oct-15 12:00N 36°04' W 005°23'5 6.7
2018-Oct-15 11:17N 36°09' W 005°22'2 0.4
2018-Oct-15 05:49N 36°06' W 005°22'4 8.2
2018-Oct-15 05:16N 36°06' W 005°17'210.0
2018-Oct-15 05:04N 36°06' W 005°14'0 9.0
2018-Oct-15 05:01N 36°06' W 005°14'1 2.3
2018-Oct-15 04:31N 36°05' W 005°15'2 4.5
2018-Oct-15 04:04N 36°06' W 005°17'0 8.8
2018-Oct-15 04:01N 36°06' W 005°17'510.6
2018-Oct-15 03:30N 36°07' W 005°10'  
Track history (hours):
 
Tides and Currents Weather Stations Pressure Air Temp Water Temp Dewpoint Dewpoint Depression Visibility Wind Speed Wind Dir Waves Ship Positions

Flinterborg

Last reported at 2018-Oct-20 16:30 UTC. Time now 2018-Oct-20 16:46 UTC.
Position N 46°10' W 001°14'.

Length 111 m; draft 6.1 m.

Type: Ship. MMSI: 245433000.

Date/timePositionNaut miles runAvg speedWind from/ knotsBaromVisibWave heightAir tempDewpointWater temp
2018-Oct-20 16:30N 46°10' W 001°14'0 0.0
2018-Oct-20 16:03N 46°10' W 001°14'0 0.0
2018-Oct-20 16:00N 46°10' W 001°14'0 0.0
2018-Oct-20 15:30N 46°10' W 001°14'0 0.0
2018-Oct-20 15:03N 46°10' W 001°14'0 0.0
2018-Oct-20 15:00N 46°10' W 001°14'0 0.0
2018-Oct-20 14:02N 46°10' W 001°14'0 0.0
2018-Oct-20 13:29N 46°10' W 001°14'0 0.0
2018-Oct-20 13:02N 46°10' W 001°14'0 0.0
2018-Oct-20 12:59N 46°10' W 001°14'0 0.0
2018-Oct-20 12:29N 46°10' W 001°14'0 0.0
2018-Oct-20 12:01N 46°10' W 001°14'0 0.0
2018-Oct-20 11:58N 46°10' W 001°14'0 0.0
2018-Oct-20 11:28N 46°10' W 001°14'0 0.0
2018-Oct-20 11:01N 46°10' W 001°14'0 0.0
2018-Oct-20 10:58N 46°10' W 001°14'0 0.0
2018-Oct-20 10:28N 46°10' W 001°14'0 0.0
2018-Oct-20 09:58N 46°10' W 001°14'0 0.0
2018-Oct-20 09:30N 46°10' W 001°14'0 0.0
2018-Oct-20 09:03N 46°10' W 001°14'0 0.0
2018-Oct-20 09:00N 46°10' W 001°14'0 0.0
2018-Oct-20 08:30N 46°10' W 001°14'0 0.0
2018-Oct-20 08:03N 46°10' W 001°14'0 0.0
2018-Oct-20 08:00N 46°10' W 001°14'0 0.0
2018-Oct-20 07:29N 46°10' W 001°14'0 0.0
2018-Oct-20 07:02N 46°10' W 001°14'0 0.0
2018-Oct-20 06:59N 46°10' W 001°14'0 0.0
2018-Oct-20 06:29N 46°10' W 001°14'0 0.0
2018-Oct-20 06:02N 46°10' W 001°14'0 0.0
2018-Oct-20 05:59N 46°10' W 001°14'0 0.0
2018-Oct-20 05:29N 46°10' W 001°14'0 0.0
2018-Oct-20 05:01N 46°10' W 001°14'0 0.0
2018-Oct-20 04:58N 46°10' W 001°14'0 0.0
2018-Oct-20 04:28N 46°10' W 001°14'0 0.0
2018-Oct-20 04:01N 46°10' W 001°14'0 0.0
2018-Oct-20 03:58N 46°10' W 001°14'0 0.0
2018-Oct-20 03:28N 46°10' W 001°14'0 0.0
2018-Oct-20 03:01N 46°10' W 001°14'0 0.0
2018-Oct-20 02:58N 46°10' W 001°14'0 0.0
2018-Oct-20 02:30N 46°10' W 001°14'0 0.0
2018-Oct-20 02:03N 46°10' W 001°14'0 0.0
2018-Oct-20 02:00N 46°10' W 001°14'0 0.0
2018-Oct-20 01:30N 46°10' W 001°14'0 0.0
2018-Oct-20 01:03N 46°10' W 001°14'0 0.0
2018-Oct-20 01:00N 46°10' W 001°14'0 0.0
2018-Oct-20 00:29N 46°10' W 001°14'0 0.0
2018-Oct-20 00:02N 46°10' W 001°14'0 0.0
2018-Oct-19 23:59N 46°10' W 001°14'0 0.0
2018-Oct-19 23:29N 46°10' W 001°14'0 0.0
2018-Oct-19 23:02N 46°10' W 001°14'0 0.1
2018-Oct-19 22:59N 46°10' W 001°14'0 0.0
2018-Oct-19 22:26N 46°10' W 001°14'0 0.0
2018-Oct-19 22:01N 46°10' W 001°14'0 0.0
2018-Oct-19 21:58N 46°10' W 001°14'0 0.0
2018-Oct-19 21:28N 46°10' W 001°14'0 0.0
2018-Oct-19 21:03N 46°10' W 001°14'0 0.0
2018-Oct-19 21:00N 46°10' W 001°14'1 1.3
2018-Oct-19 20:30N 46°09' W 001°14'4 7.9
2018-Oct-19 20:03N 46°06' W 001°17'110.7
2018-Oct-19 20:01N 46°06' W 001°18'611.6
2018-Oct-19 19:30N 46°06' W 001°26'511.3
2018-Oct-19 19:03N 46°07' W 001°33'111.1
2018-Oct-19 19:00N 46°07' W 001°34'611.0
2018-Oct-19 18:27N 46°05' W 001°43'410.9
2018-Oct-19 18:03N 46°03' W 001°48'111.0
2018-Oct-19 18:00N 46°03' W 001°49'610.9
2018-Oct-19 17:30N 46°00' W 001°56'4810.5
2018-Oct-19 12:55N 45°40' W 002°58'510.7
2018-Oct-19 12:24N 45°37' W 003°05'  
2018-Oct-17 04:16N 39°24' W 009°50'310.1
2018-Oct-17 04:00N 39°21' W 009°50'5 9.9
2018-Oct-17 03:30N 39°16' W 009°50'410.0
2018-Oct-17 03:04N 39°12' W 009°50'0 9.9
2018-Oct-17 03:00N 39°12' W 009°50'5 9.7
2018-Oct-17 02:30N 39°07' W 009°50'4 9.8
2018-Oct-17 02:03N 39°02' W 009°50'0 9.8
2018-Oct-17 02:00N 39°02' W 009°50'5 9.7
2018-Oct-17 01:30N 38°57' W 009°50'4 9.9
2018-Oct-17 01:03N 38°52' W 009°50'010.1
2018-Oct-17 01:00N 38°52' W 009°50'510.0
2018-Oct-17 00:30N 38°47' W 009°51'4 9.7
2018-Oct-17 00:03N 38°43' W 009°50'0 9.7
2018-Oct-17 00:00N 38°42' W 009°50'5 9.9
2018-Oct-16 23:30N 38°37' W 009°49'510.0
2018-Oct-16 23:03N 38°33' W 009°48'0 9.7
2018-Oct-16 23:00N 38°32' W 009°47'510.0
2018-Oct-16 22:30N 38°27' W 009°46'510.1
2018-Oct-16 22:03N 38°23' W 009°45'010.2
2018-Oct-16 22:00N 38°23' W 009°44'510.3
2018-Oct-16 21:30N 38°18' W 009°43'510.4
2018-Oct-16 21:02N 38°13' W 009°41'010.6
2018-Oct-16 21:00N 38°13' W 009°41'510.4
2018-Oct-16 20:30N 38°08' W 009°40'510.3
2018-Oct-16 20:01N 38°03' W 009°38'010.6
2018-Oct-16 20:00N 38°02' W 009°38'610.6
2018-Oct-16 19:24N 37°56' W 009°37'410.3
2018-Oct-16 19:03N 37°53' W 009°36'010.4
2018-Oct-16 19:00N 37°52' W 009°36'610.4
2018-Oct-16 18:29N 37°47' W 009°34'410.2
2018-Oct-16 18:03N 37°43' W 009°33'110.1
2018-Oct-16 17:59N 37°42' W 009°33'510.1
2018-Oct-16 17:30N 37°37' W 009°32'9 9.8
2018-Oct-16 16:33N 37°28' W 009°29'210 8.4
2018-Oct-15 15:31N 35°59' W 005°31'0 8.5
2018-Oct-15 15:30N 35°59' W 005°31'4 8.2
2018-Oct-15 15:03N 36°00' W 005°27'1 7.3
2018-Oct-15 14:51N 36°01' W 005°25'2 6.2
2018-Oct-15 14:30N 36°03' W 005°24'1 2.0
2018-Oct-15 14:00N 36°04' W 005°24'0 0.9
2018-Oct-15 13:30N 36°04' W 005°23'0 0.2
2018-Oct-15 13:03N 36°04' W 005°23'0 1.3
2018-Oct-15 13:00N 36°04' W 005°23'0 0.8
2018-Oct-15 12:30N 36°04' W 005°23'0 0.5
2018-Oct-15 12:03N 36°04' W 005°23'0 1.2
2018-Oct-15 12:00N 36°04' W 005°23'5 6.7
2018-Oct-15 11:17N 36°09' W 005°22'2 0.4
2018-Oct-15 05:49N 36°06' W 005°22'4 8.2
2018-Oct-15 05:16N 36°06' W 005°17'210.0
2018-Oct-15 05:04N 36°06' W 005°14'0 9.0
2018-Oct-15 05:01N 36°06' W 005°14'1 2.3
2018-Oct-15 04:31N 36°05' W 005°15'2 4.5
2018-Oct-15 04:04N 36°06' W 005°17'0 8.8
2018-Oct-15 04:01N 36°06' W 005°17'510.6
2018-Oct-15 03:30N 36°07' W 005°10'  

Dump ship's entire track history